Flight Track Log - Related Links

Times and Time Zones

All times are in EDT time to prevent confusion due to time zone crossing. See the PDT4205 flight status page for this flight to view local times or setup timezone preferences in your user account.

Time Position Orientation Groundspeed Altitude Reporting Facility
EDT Latitude Longitude Course Direction KTS MPH feet Rate Location/Type
Sun 01:01:59 PM 35.2011 -80.9353 148° Southeast 136 157 1,300  Level Atlanta Center
Sun 01:06:58 PM 35.0458 -80.8167 182° South 163 188 6,200 981 Climbing Atlanta Center
Sun 01:08:00 PM 34.9981 -80.8186 182° South 163 188 7,200 822 Climbing Atlanta Center
Sun 01:10:15 PM 34.8939 -80.8222 166° South 175 201 8,900 769 Climbing Jacksonville Center
Sun 01:11:15 PM 34.8478 -80.8081 161° South 175 201 9,700 700 Climbing Jacksonville Center
Sun 01:12:15 PM 34.7972 -80.7867 160° South 180 207 10,300 700 Climbing Jacksonville Center
Sun 01:13:15 PM 34.7489 -80.7650 157° South 185 213 11,100 700 Climbing Jacksonville Center
Sun 01:14:15 PM 34.7025 -80.7411 155° Southeast 185 213 11,700 650 Climbing Jacksonville Center
Sun 01:15:15 PM 34.6564 -80.7144 163° South 190 219 12,400 700 Climbing Jacksonville Center
Sun 01:16:15 PM 34.6058 -80.6956 168° South 190 219 13,100 700 Climbing Jacksonville Center
Sun 01:17:15 PM 34.5619 -80.6839 184° South 176 203 13,800 650 Climbing Jacksonville Center
Sun 01:18:15 PM 34.5097 -80.6878 177° South 184 212 14,400 650 Climbing Jacksonville Center
Sun 01:19:15 PM 34.4597 -80.6842 183° South 188 216 15,100 750 Climbing Jacksonville Center
Sun 01:20:15 PM 34.4097 -80.6878 183° South 188 216 15,900 500 Climbing Jacksonville Center
Sun 01:21:15 PM 34.3533 -80.6917 179° South 188 216 16,100 100 Climbing Jacksonville Center
Sun 01:22:15 PM 34.2969 -80.6908 181° South 213 245 16,100  Level Jacksonville Center
Sun 01:23:15 PM 34.2386 -80.6922 181° South 213 245 16,100  Level Jacksonville Center
Sun 01:24:15 PM 34.1844 -80.6936 183° South 213 245 16,100  Level Jacksonville Center
Sun 01:25:15 PM 34.1242 -80.6975 177° South 213 245 16,100  Level Jacksonville Center
Sun 01:26:15 PM 34.0678 -80.6942 183° South 213 245 16,100  Level Jacksonville Center
Sun 01:27:15 PM 34.0092 -80.6981 177° South 213 245 16,100  Level Jacksonville Center
Sun 01:28:15 PM 33.9528 -80.6944 183° South 213 245 16,100  Level Jacksonville Center
Sun 01:29:15 PM 33.8967 -80.6983 185° South 218 251 16,100  Level Jacksonville Center
Sun 01:30:15 PM 33.8383 -80.7047 181° South 213 245 16,100  Level Jacksonville Center
Sun 01:31:15 PM 33.7842 -80.7061 181° South 213 245 16,100  Level Jacksonville Center
Sun 01:32:15 PM 33.7278 -80.7075 171° South 213 245 16,100  Level Jacksonville Center
Sun 01:33:15 PM 33.6711 -80.6964 175° South 213 245 16,100  Level Jacksonville Center
Sun 01:34:15 PM 33.6147 -80.6903 181° South 213 245 16,100  Level Jacksonville Center
Sun 01:35:15 PM 33.5606 -80.6917 179° South 218 251 16,100  Level Jacksonville Center
Sun 01:36:15 PM 33.5042 -80.6906 183° South 218 251 16,100  Level Jacksonville Center
Sun 01:37:15 PM 33.4478 -80.6944 185° South 213 245 16,100  Level Jacksonville Center
Sun 01:38:15 PM 33.3894 -80.7008 181° South 213 245 16,100  Level Jacksonville Center
Sun 01:39:15 PM 33.3311 -80.7022 181° South 213 245 16,100  Level Jacksonville Center
Sun 01:40:15 PM 33.2747 -80.7039 181° South 213 245 16,100  Level Jacksonville Center
Sun 01:41:15 PM 33.2144 -80.7053 177° South 213 245 16,100  Level Jacksonville Center
Sun 01:42:15 PM 33.1536 -80.7017 175° South 213 245 16,100 -400 Level Jacksonville Center
Sun 01:43:15 PM 33.0953 -80.6958 176° South 213 245 15,300 -900 Descending Jacksonville Center
Sun 01:44:15 PM 33.0303 -80.6900 181° South 219 252 14,300 -1,150 Descending Jacksonville Center
Sun 01:45:15 PM 32.9658 -80.6914 181° South 225 259 13,000 -1,400 Descending Jacksonville Center
Sun 01:46:15 PM 32.9011 -80.6931 183° South 235 270 11,500 -1,500 Descending Jacksonville Center
Sun 01:47:15 PM 32.8364 -80.6972 181° South 235 270 10,000 -1,450 Descending Jacksonville Center
Sun 01:48:15 PM 32.7758 -80.6986 181° South 235 270 8,600 -1,450 Descending Jacksonville Center
Sun 01:49:15 PM 32.7111 -80.7003 179° South 235 270 7,100 -1,600 Descending Jacksonville Center
Sun 01:50:15 PM 32.6464 -80.6992 179° South 228 262 5,400 -1,600 Descending Jacksonville Center
Sun 01:51:15 PM 32.5858 -80.6983 181° South 212 244 3,900 -1,450 Descending Jacksonville Center
Sun 01:52:15 PM 32.5339 -80.6994 181° South 207 238 2,500 -1,400 Descending Jacksonville Center

Login

Don't have an account? Register now (free) for customized features, flight alerts, and more!